sensor_id;sensor_type;location;lat;lon;timestamp;pressure;altitude;pressure_sealevel;temperature;humidity
60646;BME280;46462;32.608;-117.032;2023-02-23T00:00:53;99252.76;;;24.43;30.65
60646;BME280;46462;32.608;-117.032;2023-02-23T00:03:24;99259.77;;;24.12;31.01
60646;BME280;46462;32.608;-117.032;2023-02-23T00:05:54;99262.49;;;24.07;30.98
60646;BME280;46462;32.608;-117.032;2023-02-23T00:08:25;99270.41;;;24.19;30.66
60646;BME280;46462;32.608;-117.032;2023-02-23T00:10:58;99275.50;;;24.32;30.82
60646;BME280;46462;32.608;-117.032;2023-02-23T00:13:27;99272.61;;;24.95;29.61
60646;BME280;46462;32.608;-117.032;2023-02-23T00:15:58;99270.65;;;24.95;29.39
60646;BME280;46462;32.608;-117.032;2023-02-23T00:18:28;99272.14;;;24.74;29.44
60646;BME280;46462;32.608;-117.032;2023-02-23T00:20:59;99277.10;;;24.31;30.10
60646;BME280;46462;32.608;-117.032;2023-02-23T00:23:29;99271.71;;;24.14;30.28
60646;BME280;46462;32.608;-117.032;2023-02-23T00:26:03;99271.55;;;23.90;30.73
60646;BME280;46462;32.608;-117.032;2023-02-23T00:28:31;99272.19;;;24.65;29.61
60646;BME280;46462;32.608;-117.032;2023-02-23T00:31:06;99265.05;;;25.15;28.66
60646;BME280;46462;32.608;-117.032;2023-02-23T00:33:32;99271.41;;;25.23;28.69
60646;BME280;46462;32.608;-117.032;2023-02-23T00:36:05;99271.17;;;25.57;28.65
60646;BME280;46462;32.608;-117.032;2023-02-23T00:38:34;99277.12;;;25.66;28.71
60646;BME280;46462;32.608;-117.032;2023-02-23T00:41:06;99277.97;;;25.83;29.08
60646;BME280;46462;32.608;-117.032;2023-02-23T00:43:36;99276.37;;;25.90;29.12
60646;BME280;46462;32.608;-117.032;2023-02-23T00:46:06;99275.49;;;25.88;29.04
60646;BME280;46462;32.608;-117.032;2023-02-23T00:48:36;99274.42;;;25.54;29.81
60646;BME280;46462;32.608;-117.032;2023-02-23T00:51:07;99277.85;;;25.79;29.54
60646;BME280;46462;32.608;-117.032;2023-02-23T00:53:37;99275.33;;;25.86;26.74
60646;BME280;46462;32.608;-117.032;2023-02-23T00:56:09;99280.43;;;25.24;26.20
60646;BME280;46462;32.608;-117.032;2023-02-23T00:58:39;99285.16;;;24.82;26.43
60646;BME280;46462;32.608;-117.032;2023-02-23T01:01:11;99285.27;;;24.18;27.09
60646;BME280;46462;32.608;-117.032;2023-02-23T01:03:41;99283.78;;;24.18;26.86
60646;BME280;46462;32.608;-117.032;2023-02-23T01:06:13;99285.88;;;23.83;27.51
60646;BME280;46462;32.608;-117.032;2023-02-23T01:08:43;99279.97;;;23.23;28.46
60646;BME280;46462;32.608;-117.032;2023-02-23T01:11:14;99278.02;;;23.34;28.05
60646;BME280;46462;32.608;-117.032;2023-02-23T01:13:44;99274.84;;;23.13;28.05
60646;BME280;46462;32.608;-117.032;2023-02-23T01:16:16;99279.31;;;22.87;28.72
60646;BME280;46462;32.608;-117.032;2023-02-23T01:18:45;99275.76;;;22.78;28.40
60646;BME280;46462;32.608;-117.032;2023-02-23T01:21:16;99265.09;;;22.84;28.42
60646;BME280;46462;32.608;-117.032;2023-02-23T01:23:46;99262.57;;;22.53;29.33
60646;BME280;46462;32.608;-117.032;2023-02-23T01:26:17;99264.38;;;22.55;29.39
60646;BME280;46462;32.608;-117.032;2023-02-23T01:28:49;99263.35;;;22.41;30.18
60646;BME280;46462;32.608;-117.032;2023-02-23T01:31:19;99263.36;;;22.79;29.89
60646;BME280;46462;32.608;-117.032;2023-02-23T01:33:53;99271.64;;;23.29;29.32
60646;BME280;46462;32.608;-117.032;2023-02-23T01:36:19;99272.22;;;23.48;29.28
60646;BME280;46462;32.608;-117.032;2023-02-23T01:38:50;99276.20;;;23.19;30.27
60646;BME280;46462;32.608;-117.032;2023-02-23T01:41:21;99278.12;;;23.37;30.09
60646;BME280;46462;32.608;-117.032;2023-02-23T01:43:56;99283.94;;;23.18;30.14
60646;BME280;46462;32.608;-117.032;2023-02-23T01:46:22;99278.82;;;23.08;30.06
60646;BME280;46462;32.608;-117.032;2023-02-23T01:48:53;99275.15;;;22.83;30.01
60646;BME280;46462;32.608;-117.032;2023-02-23T01:51:26;99278.31;;;22.83;30.92
60646;BME280;46462;32.608;-117.032;2023-02-23T01:53:58;99280.95;;;22.44;32.00
60646;BME280;46462;32.608;-117.032;2023-02-23T01:56:28;99278.00;;;22.47;31.36
60646;BME280;46462;32.608;-117.032;2023-02-23T01:58:57;99285.60;;;22.40;31.43
60646;BME280;46462;32.608;-117.032;2023-02-23T02:01:26;99288.30;;;22.48;30.74
60646;BME280;46462;32.608;-117.032;2023-02-23T02:03:59;99284.67;;;22.30;30.83
60646;BME280;46462;32.608;-117.032;2023-02-23T02:06:28;99286.64;;;22.37;30.35
60646;BME280;46462;32.608;-117.032;2023-02-23T02:09:02;99294.90;;;21.95;31.45
60646;BME280;46462;32.608;-117.032;2023-02-23T02:11:29;99297.23;;;22.28;30.57
60646;BME280;46462;32.608;-117.032;2023-02-23T02:14:04;99300.91;;;22.17;30.70
60646;BME280;46462;32.608;-117.032;2023-02-23T02:16:39;99301.04;;;22.07;31.06
60646;BME280;46462;32.608;-117.032;2023-02-23T02:21:43;99301.27;;;21.77;31.67
60646;BME280;46462;32.608;-117.032;2023-02-23T02:24:15;99300.61;;;21.33;32.45
60646;BME280;46462;32.608;-117.032;2023-02-23T02:26:43;99304.83;;;21.65;31.90
60646;BME280;46462;32.608;-117.032;2023-02-23T02:39:12;99325.75;;;21.10;32.19
60646;BME280;46462;32.608;-117.032;2023-02-23T02:41:45;99329.35;;;21.07;32.03
60646;BME280;46462;32.608;-117.032;2023-02-23T02:44:14;99328.31;;;21.27;31.34
60646;BME280;46462;32.608;-117.032;2023-02-23T02:46:45;99331.15;;;21.39;30.79
60646;BME280;46462;32.608;-117.032;2023-02-23T02:49:15;99333.53;;;21.05;31.45
60646;BME280;46462;32.608;-117.032;2023-02-23T02:51:47;99335.12;;;21.22;31.17
60646;BME280;46462;32.608;-117.032;2023-02-23T02:54:19;99336.50;;;20.76;32.00
60646;BME280;46462;32.608;-117.032;2023-02-23T02:56:44;99341.69;;;21.25;31.21
60646;BME280;46462;32.608;-117.032;2023-02-23T02:59:17;99346.15;;;21.00;31.62
60646;BME280;46462;32.608;-117.032;2023-02-23T03:01:46;99348.49;;;21.08;31.64
60646;BME280;46462;32.608;-117.032;2023-02-23T03:04:20;99347.85;;;21.03;31.72
60646;BME280;46462;32.608;-117.032;2023-02-23T03:06:54;99348.73;;;20.97;31.33
60646;BME280;46462;32.608;-117.032;2023-02-23T03:09:29;99350.25;;;20.32;32.99
60646;BME280;46462;32.608;-117.032;2023-02-23T03:11:55;99349.96;;;20.58;31.94
60646;BME280;46462;32.608;-117.032;2023-02-23T03:14:27;99350.79;;;20.21;33.53
60646;BME280;46462;32.608;-117.032;2023-02-23T03:16:58;99353.95;;;20.54;32.82
60646;BME280;46462;32.608;-117.032;2023-02-23T03:19:25;99353.75;;;20.72;32.19
60646;BME280;46462;32.608;-117.032;2023-02-23T03:21:55;99361.17;;;20.55;33.06
60646;BME280;46462;32.608;-117.032;2023-02-23T03:24:27;99359.40;;;20.48;33.49
60646;BME280;46462;32.608;-117.032;2023-02-23T03:26:57;99361.32;;;20.45;33.40
60646;BME280;46462;32.608;-117.032;2023-02-23T03:29:29;99362.75;;;20.39;33.75
60646;BME280;46462;32.608;-117.032;2023-02-23T03:32:00;99364.33;;;20.25;33.84
60646;BME280;46462;32.608;-117.032;2023-02-23T03:34:30;99363.80;;;20.51;33.05
60646;BME280;46462;32.608;-117.032;2023-02-23T03:37:01;99362.80;;;20.73;32.90
60646;BME280;46462;32.608;-117.032;2023-02-23T03:39:29;99362.08;;;20.97;31.91
60646;BME280;46462;32.608;-117.032;2023-02-23T03:41:57;99360.80;;;21.03;31.65
60646;BME280;46462;32.608;-117.032;2023-02-23T03:44:31;99359.05;;;20.91;31.90
60646;BME280;46462;32.608;-117.032;2023-02-23T03:46:58;99373.76;;;20.64;32.60
60646;BME280;46462;32.608;-117.032;2023-02-23T03:49:33;99377.55;;;20.89;31.86
60646;BME280;46462;32.608;-117.032;2023-02-23T03:52:05;99374.87;;;20.86;31.95
60646;BME280;46462;32.608;-117.032;2023-02-23T03:54:33;99372.02;;;20.94;31.37
60646;BME280;46462;32.608;-117.032;2023-02-23T03:57:04;99376.14;;;20.73;31.91
60646;BME280;46462;32.608;-117.032;2023-02-23T03:59:35;99373.71;;;21.00;31.53
60646;BME280;46462;32.608;-117.032;2023-02-23T04:02:04;99376.78;;;21.09;31.39
60646;BME280;46462;32.608;-117.032;2023-02-23T04:04:34;99378.21;;;20.53;32.22
60646;BME280;46462;32.608;-117.032;2023-02-23T04:07:04;99378.43;;;20.84;31.56
60646;BME280;46462;32.608;-117.032;2023-02-23T04:09:33;99377.29;;;21.13;30.92
60646;BME280;46462;32.608;-117.032;2023-02-23T04:12:10;99377.25;;;21.09;30.85
60646;BME280;46462;32.608;-117.032;2023-02-23T04:14:49;99376.05;;;20.97;30.99
60646;BME280;46462;32.608;-117.032;2023-02-23T04:17:05;99383.95;;;20.91;31.30
60646;BME280;46462;32.608;-117.032;2023-02-23T04:19:35;99384.84;;;21.04;30.82
60646;BME280;46462;32.608;-117.032;2023-02-23T04:22:06;99390.97;;;20.65;31.92
60646;BME280;46462;32.608;-117.032;2023-02-23T04:24:37;99393.59;;;20.87;31.21
60646;BME280;46462;32.608;-117.032;2023-02-23T04:27:07;99392.77;;;20.35;32.21
60646;BME280;46462;32.608;-117.032;2023-02-23T04:29:37;99388.37;;;20.68;32.93
60646;BME280;46462;32.608;-117.032;2023-02-23T04:32:12;99388.11;;;21.04;32.25
60646;BME280;46462;32.608;-117.032;2023-02-23T04:34:37;99394.27;;;21.22;32.17
60646;BME280;46462;32.608;-117.032;2023-02-23T04:37:08;99393.83;;;21.30;31.90
60646;BME280;46462;32.608;-117.032;2023-02-23T04:39:38;99396.50;;;21.63;31.26
60646;BME280;46462;32.608;-117.032;2023-02-23T04:42:09;99392.21;;;21.90;30.70
60646;BME280;46462;32.608;-117.032;2023-02-23T04:44:40;99394.13;;;21.85;31.11
60646;BME280;46462;32.608;-117.032;2023-02-23T04:47:12;99398.35;;;22.03;30.65
60646;BME280;46462;32.608;-117.032;2023-02-23T04:49:42;99404.98;;;22.11;29.97
60646;BME280;46462;32.608;-117.032;2023-02-23T04:52:13;99406.18;;;22.02;29.49
60646;BME280;46462;32.608;-117.032;2023-02-23T04:54:43;99413.77;;;21.91;29.53
60646;BME280;46462;32.608;-117.032;2023-02-23T04:57:14;99417.04;;;21.58;30.00
60646;BME280;46462;32.608;-117.032;2023-02-23T04:59:45;99424.77;;;21.69;29.87
60646;BME280;46462;32.608;-117.032;2023-02-23T05:02:15;99425.19;;;21.75;29.68
60646;BME280;46462;32.608;-117.032;2023-02-23T05:04:46;99425.67;;;21.59;29.86
60646;BME280;46462;32.608;-117.032;2023-02-23T05:07:17;99423.47;;;21.64;29.74
60646;BME280;46462;32.608;-117.032;2023-02-23T05:09:48;99421.46;;;21.72;29.62
60646;BME280;46462;32.608;-117.032;2023-02-23T05:12:18;99418.14;;;21.74;29.53
60646;BME280;46462;32.608;-117.032;2023-02-23T05:14:49;99418.78;;;21.75;29.53
60646;BME280;46462;32.608;-117.032;2023-02-23T05:17:20;99422.70;;;21.83;29.42
60646;BME280;46462;32.608;-117.032;2023-02-23T05:19:51;99424.07;;;21.82;29.41
60646;BME280;46462;32.608;-117.032;2023-02-23T05:22:22;99423.92;;;21.89;29.32
60646;BME280;46462;32.608;-117.032;2023-02-23T05:24:52;99427.92;;;21.94;29.24
60646;BME280;46462;32.608;-117.032;2023-02-23T05:27:23;99435.43;;;21.98;29.16
60646;BME280;46462;32.608;-117.032;2023-02-23T05:29:54;99441.71;;;21.97;29.21
60646;BME280;46462;32.608;-117.032;2023-02-23T05:32:25;99440.24;;;22.00;29.15
60646;BME280;46462;32.608;-117.032;2023-02-23T05:34:56;99442.43;;;21.95;29.21
60646;BME280;46462;32.608;-117.032;2023-02-23T05:37:26;99439.35;;;21.92;29.21
60646;BME280;46462;32.608;-117.032;2023-02-23T05:39:57;99442.81;;;22.01;29.11
60646;BME280;46462;32.608;-117.032;2023-02-23T05:42:28;99448.08;;;21.94;29.20
60646;BME280;46462;32.608;-117.032;2023-02-23T05:44:59;99448.77;;;21.97;29.11
60646;BME280;46462;32.608;-117.032;2023-02-23T05:47:30;99446.40;;;21.92;29.15
60646;BME280;46462;32.608;-117.032;2023-02-23T05:50:00;99442.81;;;21.95;29.14
60646;BME280;46462;32.608;-117.032;2023-02-23T05:52:32;99443.69;;;22.01;29.08
60646;BME280;46462;32.608;-117.032;2023-02-23T05:55:02;99445.45;;;21.90;29.24
60646;BME280;46462;32.608;-117.032;2023-02-23T05:57:33;99441.72;;;22.00;29.16
60646;BME280;46462;32.608;-117.032;2023-02-23T06:00:09;99442.00;;;21.94;29.28
60646;BME280;46462;32.608;-117.032;2023-02-23T06:02:37;99443.60;;;21.87;29.35
60646;BME280;46462;32.608;-117.032;2023-02-23T06:05:08;99443.55;;;21.85;29.43
60646;BME280;46462;32.608;-117.032;2023-02-23T06:07:39;99439.56;;;21.92;29.31
60646;BME280;46462;32.608;-117.032;2023-02-23T06:10:10;99437.21;;;21.84;29.49
60646;BME280;46462;32.608;-117.032;2023-02-23T06:12:40;99434.49;;;22.02;29.22
60646;BME280;46462;32.608;-117.032;2023-02-23T06:15:11;99434.93;;;21.87;29.44
60646;BME280;46462;32.608;-117.032;2023-02-23T06:17:41;99432.27;;;22.00;29.24
60646;BME280;46462;32.608;-117.032;2023-02-23T06:20:12;99431.93;;;21.89;29.40
60646;BME280;46462;32.608;-117.032;2023-02-23T06:22:43;99433.39;;;21.89;29.39
60646;BME280;46462;32.608;-117.032;2023-02-23T06:25:14;99435.61;;;21.91;29.36
60646;BME280;46462;32.608;-117.032;2023-02-23T06:27:45;99435.10;;;21.91;29.35
60646;BME280;46462;32.608;-117.032;2023-02-23T06:30:16;99436.50;;;21.78;29.59
60646;BME280;46462;32.608;-117.032;2023-02-23T06:32:47;99435.13;;;21.80;29.56
60646;BME280;46462;32.608;-117.032;2023-02-23T06:35:17;99430.12;;;21.87;29.43
60646;BME280;46462;32.608;-117.032;2023-02-23T06:37:48;99428.41;;;21.81;29.50
60646;BME280;46462;32.608;-117.032;2023-02-23T06:40:19;99430.02;;;21.74;29.61
60646;BME280;46462;32.608;-117.032;2023-02-23T06:42:50;99434.43;;;21.79;29.54
60646;BME280;46462;32.608;-117.032;2023-02-23T06:45:20;99437.06;;;21.71;29.66
60646;BME280;46462;32.608;-117.032;2023-02-23T06:47:51;99436.20;;;21.72;29.61
60646;BME280;46462;32.608;-117.032;2023-02-23T06:50:22;99438.11;;;21.56;29.82
60646;BME280;46462;32.608;-117.032;2023-02-23T06:52:53;99440.74;;;21.72;29.59
60646;BME280;46462;32.608;-117.032;2023-02-23T06:55:24;99442.70;;;21.67;29.64
60646;BME280;46462;32.608;-117.032;2023-02-23T06:57:54;99442.98;;;21.73;29.55
60646;BME280;46462;32.608;-117.032;2023-02-23T07:00:26;99440.98;;;21.71;29.55
60646;BME280;46462;32.608;-117.032;2023-02-23T07:02:57;99438.00;;;21.81;29.41
60646;BME280;46462;32.608;-117.032;2023-02-23T07:05:27;99442.39;;;21.73;29.53
60646;BME280;46462;32.608;-117.032;2023-02-23T07:07:58;99440.72;;;21.74;29.52
60646;BME280;46462;32.608;-117.032;2023-02-23T07:10:29;99435.73;;;21.70;29.58
60646;BME280;46462;32.608;-117.032;2023-02-23T07:12:59;99440.42;;;21.77;29.46
60646;BME280;46462;32.608;-117.032;2023-02-23T07:15:30;99441.57;;;21.81;29.44
60646;BME280;46462;32.608;-117.032;2023-02-23T07:18:01;99438.83;;;21.75;29.53
60646;BME280;46462;32.608;-117.032;2023-02-23T07:20:32;99436.91;;;21.65;29.72
60646;BME280;46462;32.608;-117.032;2023-02-23T07:23:03;99436.87;;;21.74;29.60
60646;BME280;46462;32.608;-117.032;2023-02-23T07:25:34;99438.31;;;21.77;29.55
60646;BME280;46462;32.608;-117.032;2023-02-23T07:28:05;99435.73;;;21.66;29.74
60646;BME280;46462;32.608;-117.032;2023-02-23T07:30:35;99439.12;;;21.75;29.63
60646;BME280;46462;32.608;-117.032;2023-02-23T07:33:06;99439.38;;;21.75;29.65
60646;BME280;46462;32.608;-117.032;2023-02-23T07:35:37;99438.06;;;21.50;30.03
60646;BME280;46462;32.608;-117.032;2023-02-23T07:38:08;99439.90;;;21.58;29.96
60646;BME280;46462;32.608;-117.032;2023-02-23T07:40:39;99442.79;;;21.74;29.69
60646;BME280;46462;32.608;-117.032;2023-02-23T07:43:09;99441.64;;;21.63;29.85
60646;BME280;46462;32.608;-117.032;2023-02-23T07:45:40;99443.19;;;21.64;29.85
60646;BME280;46462;32.608;-117.032;2023-02-23T07:48:10;99438.18;;;21.64;29.86
60646;BME280;46462;32.608;-117.032;2023-02-23T07:50:41;99433.56;;;21.62;29.86
60646;BME280;46462;32.608;-117.032;2023-02-23T07:53:12;99434.36;;;21.54;29.99
60646;BME280;46462;32.608;-117.032;2023-02-23T07:55:43;99434.56;;;21.45;30.13
60646;BME280;46462;32.608;-117.032;2023-02-23T07:58:14;99436.83;;;21.58;29.94
60646;BME280;46462;32.608;-117.032;2023-02-23T08:00:45;99439.69;;;21.55;30.00
60646;BME280;46462;32.608;-117.032;2023-02-23T08:03:15;99441.45;;;21.53;30.04
60646;BME280;46462;32.608;-117.032;2023-02-23T08:05:46;99444.81;;;21.43;30.21
60646;BME280;46462;32.608;-117.032;2023-02-23T08:08:17;99446.88;;;21.48;30.14
60646;BME280;46462;32.608;-117.032;2023-02-23T08:10:48;99443.56;;;21.52;30.08
60646;BME280;46462;32.608;-117.032;2023-02-23T08:13:19;99447.39;;;21.61;29.93
60646;BME280;46462;32.608;-117.032;2023-02-23T08:15:50;99454.71;;;21.62;29.91
60646;BME280;46462;32.608;-117.032;2023-02-23T08:18:20;99450.00;;;21.56;29.93
60646;BME280;46462;32.608;-117.032;2023-02-23T08:20:57;99452.36;;;21.59;29.88
60646;BME280;46462;32.608;-117.032;2023-02-23T08:23:22;99454.67;;;21.59;29.87
60646;BME280;46462;32.608;-117.032;2023-02-23T08:25:53;99457.25;;;21.46;30.07
60646;BME280;46462;32.608;-117.032;2023-02-23T08:28:24;99459.79;;;21.52;29.97
60646;BME280;46462;32.608;-117.032;2023-02-23T08:30:55;99463.79;;;21.46;30.06
60646;BME280;46462;32.608;-117.032;2023-02-23T08:33:26;99469.65;;;21.48;30.02
60646;BME280;46462;32.608;-117.032;2023-02-23T08:35:58;99469.37;;;21.42;30.12
60646;BME280;46462;32.608;-117.032;2023-02-23T08:38:27;99465.94;;;21.51;29.98
60646;BME280;46462;32.608;-117.032;2023-02-23T08:41:00;99469.69;;;21.49;30.00
60646;BME280;46462;32.608;-117.032;2023-02-23T08:43:29;99472.16;;;21.41;30.11
60646;BME280;46462;32.608;-117.032;2023-02-23T08:46:00;99466.04;;;21.27;30.35
60646;BME280;46462;32.608;-117.032;2023-02-23T08:48:30;99466.25;;;21.18;30.49
60646;BME280;46462;32.608;-117.032;2023-02-23T08:51:01;99468.28;;;21.33;30.26
60646;BME280;46462;32.608;-117.032;2023-02-23T08:53:32;99470.05;;;21.08;30.66
60646;BME280;46462;32.608;-117.032;2023-02-23T08:56:04;99470.96;;;21.26;30.34
60646;BME280;46462;32.608;-117.032;2023-02-23T08:58:34;99466.19;;;21.28;30.29
60646;BME280;46462;32.608;-117.032;2023-02-23T09:01:05;99465.05;;;21.39;30.10
60646;BME280;46462;32.608;-117.032;2023-02-23T09:03:35;99464.05;;;21.33;30.19
60646;BME280;46462;32.608;-117.032;2023-02-23T09:06:09;99461.76;;;21.39;30.11
60646;BME280;46462;32.608;-117.032;2023-02-23T09:08:37;99460.45;;;21.36;30.13
60646;BME280;46462;32.608;-117.032;2023-02-23T09:11:08;99465.42;;;21.36;30.11
60646;BME280;46462;32.608;-117.032;2023-02-23T09:13:38;99461.27;;;21.38;30.07
60646;BME280;46462;32.608;-117.032;2023-02-23T09:16:09;99459.42;;;21.42;30.01
60646;BME280;46462;32.608;-117.032;2023-02-23T09:18:40;99455.01;;;21.48;29.91
60646;BME280;46462;32.608;-117.032;2023-02-23T09:21:16;99460.76;;;21.32;30.17
60646;BME280;46462;32.608;-117.032;2023-02-23T09:23:42;99458.28;;;21.42;30.09
60646;BME280;46462;32.608;-117.032;2023-02-23T09:26:12;99456.66;;;21.44;29.96
60646;BME280;46462;32.608;-117.032;2023-02-23T09:28:43;99448.10;;;21.43;29.96
60646;BME280;46462;32.608;-117.032;2023-02-23T09:31:17;99448.41;;;21.46;29.92
60646;BME280;46462;32.608;-117.032;2023-02-23T09:33:45;99444.67;;;21.38;30.05
60646;BME280;46462;32.608;-117.032;2023-02-23T09:36:18;99444.48;;;21.42;29.96
60646;BME280;46462;32.608;-117.032;2023-02-23T09:38:49;99441.01;;;21.39;30.02
60646;BME280;46462;32.608;-117.032;2023-02-23T09:41:28;99444.36;;;21.29;30.22
60646;BME280;46462;32.608;-117.032;2023-02-23T09:43:52;99445.32;;;21.30;30.20
60646;BME280;46462;32.608;-117.032;2023-02-23T09:46:24;99450.98;;;21.13;30.44
60646;BME280;46462;32.608;-117.032;2023-02-23T09:48:49;99449.46;;;21.11;30.46
60646;BME280;46462;32.608;-117.032;2023-02-23T09:51:21;99454.18;;;21.16;30.38
60646;BME280;46462;32.608;-117.032;2023-02-23T09:53:54;99461.48;;;21.22;30.35
60646;BME280;46462;32.608;-117.032;2023-02-23T09:56:28;99455.78;;;21.18;30.41
60646;BME280;46462;32.608;-117.032;2023-02-23T09:58:52;99450.23;;;21.01;30.68
60646;BME280;46462;32.608;-117.032;2023-02-23T10:03:58;99449.13;;;21.10;30.59
60646;BME280;46462;32.608;-117.032;2023-02-23T10:06:25;99454.63;;;21.02;30.78
60646;BME280;46462;32.608;-117.032;2023-02-23T10:09:04;99450.44;;;21.07;30.74
60646;BME280;46462;32.608;-117.032;2023-02-23T10:11:31;99446.51;;;21.04;30.81
60646;BME280;46462;32.608;-117.032;2023-02-23T10:14:09;99441.48;;;21.07;30.75
60646;BME280;46462;32.608;-117.032;2023-02-23T10:16:36;99445.19;;;21.22;30.50
60646;BME280;46462;32.608;-117.032;2023-02-23T10:19:05;99444.87;;;21.05;30.80
60646;BME280;46462;32.608;-117.032;2023-02-23T10:21:34;99444.82;;;20.98;30.93
60646;BME280;46462;32.608;-117.032;2023-02-23T10:24:04;99445.94;;;21.14;30.72
60646;BME280;46462;32.608;-117.032;2023-02-23T10:26:38;99441.40;;;21.10;30.76
60646;BME280;46462;32.608;-117.032;2023-02-23T10:29:03;99434.13;;;21.12;30.72
60646;BME280;46462;32.608;-117.032;2023-02-23T10:31:39;99429.58;;;20.83;31.16
60646;BME280;46462;32.608;-117.032;2023-02-23T10:34:09;99440.47;;;20.88;31.21
60646;BME280;46462;32.608;-117.032;2023-02-23T10:36:37;99450.18;;;21.02;31.14
60646;BME280;46462;32.608;-117.032;2023-02-23T10:39:07;99447.21;;;20.97;31.16
60646;BME280;46462;32.608;-117.032;2023-02-23T10:41:36;99444.50;;;20.94;31.29
60646;BME280;46462;32.608;-117.032;2023-02-23T10:44:14;99444.80;;;21.00;31.22
60646;BME280;46462;32.608;-117.032;2023-02-23T10:46:40;99444.66;;;20.98;31.25
60646;BME280;46462;32.608;-117.032;2023-02-23T10:49:16;99442.24;;;20.87;31.53
60646;BME280;46462;32.608;-117.032;2023-02-23T10:51:42;99434.62;;;21.00;31.30
60646;BME280;46462;32.608;-117.032;2023-02-23T10:56:43;99422.48;;;20.91;31.58
60646;BME280;46462;32.608;-117.032;2023-02-23T10:59:17;99421.99;;;20.90;31.64
60646;BME280;46462;32.608;-117.032;2023-02-23T11:01:43;99421.63;;;20.75;31.92
60646;BME280;46462;32.608;-117.032;2023-02-23T11:04:19;99416.81;;;20.73;32.04
60646;BME280;46462;32.608;-117.032;2023-02-23T11:06:44;99418.52;;;20.89;31.84
60646;BME280;46462;32.608;-117.032;2023-02-23T11:09:23;99425.75;;;20.95;31.75
60646;BME280;46462;32.608;-117.032;2023-02-23T11:14:17;99424.77;;;20.94;31.71
60646;BME280;46462;32.608;-117.032;2023-02-23T11:16:48;99425.65;;;20.96;31.72
60646;BME280;46462;32.608;-117.032;2023-02-23T11:19:23;99422.03;;;20.98;31.76
60646;BME280;46462;32.608;-117.032;2023-02-23T11:21:51;99419.55;;;20.90;31.88
60646;BME280;46462;32.608;-117.032;2023-02-23T11:24:23;99414.56;;;20.93;31.89
60646;BME280;46462;32.608;-117.032;2023-02-23T11:26:53;99413.26;;;21.03;31.67
60646;BME280;46462;32.608;-117.032;2023-02-23T11:29:28;99409.99;;;21.02;31.77
60646;BME280;46462;32.608;-117.032;2023-02-23T11:31:54;99403.27;;;20.92;31.92
60646;BME280;46462;32.608;-117.032;2023-02-23T11:34:28;99393.72;;;21.00;31.84
60646;BME280;46462;32.608;-117.032;2023-02-23T11:37:01;99392.97;;;20.87;32.12
60646;BME280;46462;32.608;-117.032;2023-02-23T11:39:25;99398.42;;;20.82;32.21
60646;BME280;46462;32.608;-117.032;2023-02-23T11:44:27;99402.58;;;20.86;32.17
60646;BME280;46462;32.608;-117.032;2023-02-23T11:46:58;99406.07;;;20.87;32.16
60646;BME280;46462;32.608;-117.032;2023-02-23T11:49:31;99411.73;;;20.91;32.09
60646;BME280;46462;32.608;-117.032;2023-02-23T11:52:00;99411.36;;;20.98;32.00
60646;BME280;46462;32.608;-117.032;2023-02-23T11:54:32;99415.12;;;20.89;32.11
60646;BME280;46462;32.608;-117.032;2023-02-23T11:57:01;99416.96;;;20.83;32.23
60646;BME280;46462;32.608;-117.032;2023-02-23T11:59:34;99415.87;;;20.78;32.33
60646;BME280;46462;32.608;-117.032;2023-02-23T12:02:19;99410.59;;;20.87;32.16
60646;BME280;46462;32.608;-117.032;2023-02-23T12:04:36;99408.54;;;20.80;32.28
60646;BME280;46462;32.608;-117.032;2023-02-23T12:09:35;99404.41;;;20.84;32.22
60646;BME280;46462;32.608;-117.032;2023-02-23T12:12:12;99405.82;;;20.86;32.14
60646;BME280;46462;32.608;-117.032;2023-02-23T12:14:40;99403.61;;;20.98;31.94
60646;BME280;46462;32.608;-117.032;2023-02-23T12:17:13;99403.30;;;20.87;32.14
60646;BME280;46462;32.608;-117.032;2023-02-23T12:19:43;99413.41;;;20.89;32.14
60646;BME280;46462;32.608;-117.032;2023-02-23T12:22:14;99412.84;;;20.88;32.15
60646;BME280;46462;32.608;-117.032;2023-02-23T12:24:46;99407.30;;;20.86;32.19
60646;BME280;46462;32.608;-117.032;2023-02-23T12:27:15;99405.88;;;20.88;32.15
60646;BME280;46462;32.608;-117.032;2023-02-23T12:29:54;99406.97;;;20.80;32.30
60646;BME280;46462;32.608;-117.032;2023-02-23T12:32:17;99410.12;;;20.80;32.37
60646;BME280;46462;32.608;-117.032;2023-02-23T12:34:48;99422.17;;;20.79;32.43
60646;BME280;46462;32.608;-117.032;2023-02-23T12:37:25;99418.15;;;20.79;32.53
60646;BME280;46462;32.608;-117.032;2023-02-23T12:39:50;99414.53;;;20.77;32.61
60646;BME280;46462;32.608;-117.032;2023-02-23T12:42:22;99409.32;;;20.84;32.62
60646;BME280;46462;32.608;-117.032;2023-02-23T12:44:50;99404.43;;;20.76;32.82
60646;BME280;46462;32.608;-117.032;2023-02-23T12:47:26;99402.34;;;20.69;32.95
60646;BME280;46462;32.608;-117.032;2023-02-23T12:49:51;99402.72;;;20.65;32.97
60646;BME280;46462;32.608;-117.032;2023-02-23T12:52:21;99399.84;;;20.54;33.31
60646;BME280;46462;32.608;-117.032;2023-02-23T12:54:50;99393.13;;;20.67;33.16
60646;BME280;46462;32.608;-117.032;2023-02-23T12:57:27;99394.97;;;20.59;33.28
60646;BME280;46462;32.608;-117.032;2023-02-23T13:00:03;99394.23;;;20.72;33.15
60646;BME280;46462;32.608;-117.032;2023-02-23T13:02:28;99394.88;;;20.69;33.24
60646;BME280;46462;32.608;-117.032;2023-02-23T13:07:32;99401.41;;;20.57;33.59
60646;BME280;46462;32.608;-117.032;2023-02-23T13:10:02;99404.44;;;20.69;33.41
60646;BME280;46462;32.608;-117.032;2023-02-23T13:12:33;99407.32;;;20.66;33.49
60646;BME280;46462;32.608;-117.032;2023-02-23T13:14:59;99405.34;;;20.70;33.42